sensor_id;sensor_type;location;lat;lon;timestamp;P1;durP1;ratioP1;P2;durP2;ratioP2
19828;SDS011;10075;50.924;4.396;2023-03-12T00:01:12;11.80;;;5.10;;
19828;SDS011;10075;50.924;4.396;2023-03-12T00:03:41;14.10;;;6.07;;
19828;SDS011;10075;50.924;4.396;2023-03-12T00:06:10;9.40;;;5.07;;
19828;SDS011;10075;50.924;4.396;2023-03-12T00:08:37;10.80;;;6.00;;
19828;SDS011;10075;50.924;4.396;2023-03-12T00:11:05;15.50;;;5.67;;
19828;SDS011;10075;50.924;4.396;2023-03-12T00:13:33;10.50;;;5.33;;
19828;SDS011;10075;50.924;4.396;2023-03-12T00:16:04;9.27;;;5.53;;
19828;SDS011;10075;50.924;4.396;2023-03-12T00:18:32;13.03;;;5.77;;
19828;SDS011;10075;50.924;4.396;2023-03-12T00:20:59;13.07;;;5.90;;
19828;SDS011;10075;50.924;4.396;2023-03-12T00:23:28;10.47;;;5.43;;
19828;SDS011;10075;50.924;4.396;2023-03-12T00:25:59;11.17;;;5.40;;
19828;SDS011;10075;50.924;4.396;2023-03-12T00:28:27;15.47;;;5.07;;
19828;SDS011;10075;50.924;4.396;2023-03-12T00:30:54;12.60;;;5.27;;
19828;SDS011;10075;50.924;4.396;2023-03-12T00:33:22;9.60;;;5.27;;
19828;SDS011;10075;50.924;4.396;2023-03-12T00:35:49;12.17;;;5.13;;
19828;SDS011;10075;50.924;4.396;2023-03-12T00:38:17;15.80;;;4.50;;
19828;SDS011;10075;50.924;4.396;2023-03-12T00:40:45;10.43;;;4.80;;
19828;SDS011;10075;50.924;4.396;2023-03-12T00:43:13;11.73;;;4.63;;
19828;SDS011;10075;50.924;4.396;2023-03-12T00:45:40;10.00;;;4.87;;
19828;SDS011;10075;50.924;4.396;2023-03-12T00:48:07;9.53;;;4.40;;
19828;SDS011;10075;50.924;4.396;2023-03-12T00:50:34;10.63;;;4.50;;
19828;SDS011;10075;50.924;4.396;2023-03-12T00:53:01;6.17;;;3.80;;
19828;SDS011;10075;50.924;4.396;2023-03-12T00:55:28;14.97;;;4.30;;
19828;SDS011;10075;50.924;4.396;2023-03-12T00:57:56;10.93;;;3.50;;
19828;SDS011;10075;50.924;4.396;2023-03-12T01:00:23;7.67;;;3.97;;
19828;SDS011;10075;50.924;4.396;2023-03-12T01:02:50;11.83;;;4.27;;
19828;SDS011;10075;50.924;4.396;2023-03-12T01:05:17;10.00;;;3.80;;
19828;SDS011;10075;50.924;4.396;2023-03-12T01:07:44;11.20;;;4.10;;
19828;SDS011;10075;50.924;4.396;2023-03-12T01:10:12;7.27;;;3.83;;
19828;SDS011;10075;50.924;4.396;2023-03-12T01:12:42;9.23;;;3.20;;
19828;SDS011;10075;50.924;4.396;2023-03-12T01:15:10;7.60;;;3.47;;
19828;SDS011;10075;50.924;4.396;2023-03-12T01:17:39;9.87;;;4.10;;
19828;SDS011;10075;50.924;4.396;2023-03-12T01:20:07;6.83;;;3.47;;
19828;SDS011;10075;50.924;4.396;2023-03-12T01:22:36;9.20;;;3.47;;
19828;SDS011;10075;50.924;4.396;2023-03-12T01:25:03;10.10;;;3.20;;
19828;SDS011;10075;50.924;4.396;2023-03-12T01:27:31;7.70;;;3.20;;
19828;SDS011;10075;50.924;4.396;2023-03-12T01:29:58;8.77;;;3.73;;
19828;SDS011;10075;50.924;4.396;2023-03-12T01:32:26;6.10;;;3.47;;
19828;SDS011;10075;50.924;4.396;2023-03-12T01:34:53;7.67;;;3.13;;
19828;SDS011;10075;50.924;4.396;2023-03-12T01:37:21;7.33;;;3.20;;
19828;SDS011;10075;50.924;4.396;2023-03-12T01:39:47;12.37;;;3.80;;
19828;SDS011;10075;50.924;4.396;2023-03-12T01:42:14;15.27;;;4.03;;
19828;SDS011;10075;50.924;4.396;2023-03-12T01:44:48;7.87;;;3.33;;
19828;SDS011;10075;50.924;4.396;2023-03-12T01:47:16;9.40;;;2.70;;
19828;SDS011;10075;50.924;4.396;2023-03-12T01:49:45;8.37;;;3.37;;
19828;SDS011;10075;50.924;4.396;2023-03-12T01:52:14;6.60;;;3.83;;
19828;SDS011;10075;50.924;4.396;2023-03-12T01:54:44;8.70;;;2.77;;
19828;SDS011;10075;50.924;4.396;2023-03-12T01:57:20;5.50;;;2.80;;
19828;SDS011;10075;50.924;4.396;2023-03-12T01:59:51;12.97;;;2.93;;
19828;SDS011;10075;50.924;4.396;2023-03-12T02:02:19;6.57;;;2.77;;
19828;SDS011;10075;50.924;4.396;2023-03-12T02:04:52;8.23;;;3.33;;
19828;SDS011;10075;50.924;4.396;2023-03-12T02:07:25;4.67;;;2.70;;
19828;SDS011;10075;50.924;4.396;2023-03-12T02:09:52;7.10;;;2.43;;
19828;SDS011;10075;50.924;4.396;2023-03-12T02:12:19;6.03;;;2.73;;
19828;SDS011;10075;50.924;4.396;2023-03-12T02:14:46;10.83;;;3.30;;
19828;SDS011;10075;50.924;4.396;2023-03-12T02:17:13;5.70;;;3.20;;
19828;SDS011;10075;50.924;4.396;2023-03-12T02:19:42;8.70;;;2.73;;
19828;SDS011;10075;50.924;4.396;2023-03-12T02:22:16;5.80;;;2.77;;
19828;SDS011;10075;50.924;4.396;2023-03-12T02:24:45;7.47;;;2.80;;
19828;SDS011;10075;50.924;4.396;2023-03-12T02:27:18;8.40;;;2.90;;
19828;SDS011;10075;50.924;4.396;2023-03-12T02:29:47;9.03;;;3.23;;
19828;SDS011;10075;50.924;4.396;2023-03-12T02:32:16;5.93;;;2.97;;
19828;SDS011;10075;50.924;4.396;2023-03-12T02:34:48;8.73;;;3.07;;
19828;SDS011;10075;50.924;4.396;2023-03-12T02:37:15;6.77;;;2.87;;
19828;SDS011;10075;50.924;4.396;2023-03-12T02:39:43;9.43;;;3.17;;
19828;SDS011;10075;50.924;4.396;2023-03-12T02:42:15;6.93;;;2.93;;
19828;SDS011;10075;50.924;4.396;2023-03-12T02:44:43;5.93;;;2.90;;
19828;SDS011;10075;50.924;4.396;2023-03-12T02:47:10;9.70;;;3.10;;
19828;SDS011;10075;50.924;4.396;2023-03-12T02:49:37;8.00;;;2.93;;
19828;SDS011;10075;50.924;4.396;2023-03-12T02:52:04;8.37;;;2.73;;
19828;SDS011;10075;50.924;4.396;2023-03-12T02:54:31;8.43;;;3.13;;
19828;SDS011;10075;50.924;4.396;2023-03-12T02:56:58;8.03;;;2.93;;
19828;SDS011;10075;50.924;4.396;2023-03-12T02:59:26;7.03;;;2.83;;
19828;SDS011;10075;50.924;4.396;2023-03-12T03:01:55;9.03;;;2.57;;
19828;SDS011;10075;50.924;4.396;2023-03-12T03:04:23;10.33;;;3.13;;
19828;SDS011;10075;50.924;4.396;2023-03-12T03:06:50;10.20;;;3.17;;
19828;SDS011;10075;50.924;4.396;2023-03-12T03:09:18;8.70;;;2.80;;
19828;SDS011;10075;50.924;4.396;2023-03-12T03:11:46;10.23;;;3.47;;
19828;SDS011;10075;50.924;4.396;2023-03-12T03:14:13;5.77;;;2.40;;
19828;SDS011;10075;50.924;4.396;2023-03-12T03:16:40;9.63;;;3.10;;
19828;SDS011;10075;50.924;4.396;2023-03-12T03:19:08;8.40;;;2.83;;
19828;SDS011;10075;50.924;4.396;2023-03-12T03:21:36;10.77;;;3.20;;
19828;SDS011;10075;50.924;4.396;2023-03-12T03:24:03;6.53;;;2.80;;
19828;SDS011;10075;50.924;4.396;2023-03-12T03:26:31;9.87;;;2.93;;
19828;SDS011;10075;50.924;4.396;2023-03-12T03:28:58;6.00;;;2.90;;
19828;SDS011;10075;50.924;4.396;2023-03-12T03:31:25;10.23;;;3.17;;
19828;SDS011;10075;50.924;4.396;2023-03-12T03:33:52;12.47;;;3.20;;
19828;SDS011;10075;50.924;4.396;2023-03-12T03:36:20;8.27;;;2.40;;
19828;SDS011;10075;50.924;4.396;2023-03-12T03:38:47;11.87;;;3.00;;
19828;SDS011;10075;50.924;4.396;2023-03-12T03:41:15;9.17;;;3.30;;
19828;SDS011;10075;50.924;4.396;2023-03-12T03:43:42;7.03;;;3.30;;
19828;SDS011;10075;50.924;4.396;2023-03-12T03:46:10;10.00;;;2.90;;
19828;SDS011;10075;50.924;4.396;2023-03-12T03:48:38;7.53;;;3.17;;
19828;SDS011;10075;50.924;4.396;2023-03-12T03:51:06;10.97;;;3.17;;
19828;SDS011;10075;50.924;4.396;2023-03-12T03:53:35;7.77;;;2.77;;
19828;SDS011;10075;50.924;4.396;2023-03-12T03:56:05;10.93;;;3.53;;
19828;SDS011;10075;50.924;4.396;2023-03-12T03:58:33;7.03;;;3.57;;
19828;SDS011;10075;50.924;4.396;2023-03-12T04:01:00;6.07;;;3.50;;
19828;SDS011;10075;50.924;4.396;2023-03-12T04:03:27;8.57;;;3.10;;
19828;SDS011;10075;50.924;4.396;2023-03-12T04:05:54;8.10;;;3.80;;
19828;SDS011;10075;50.924;4.396;2023-03-12T04:08:22;6.53;;;3.37;;
19828;SDS011;10075;50.924;4.396;2023-03-12T04:10:50;12.37;;;4.30;;
19828;SDS011;10075;50.924;4.396;2023-03-12T04:13:18;11.97;;;4.63;;
19828;SDS011;10075;50.924;4.396;2023-03-12T04:15:46;10.20;;;4.23;;
19828;SDS011;10075;50.924;4.396;2023-03-12T04:18:13;7.77;;;4.00;;
19828;SDS011;10075;50.924;4.396;2023-03-12T04:20:40;8.70;;;4.20;;
19828;SDS011;10075;50.924;4.396;2023-03-12T04:23:08;8.17;;;4.30;;
19828;SDS011;10075;50.924;4.396;2023-03-12T04:25:35;8.60;;;3.93;;
19828;SDS011;10075;50.924;4.396;2023-03-12T04:28:04;7.53;;;3.73;;
19828;SDS011;10075;50.924;4.396;2023-03-12T04:30:31;7.33;;;3.90;;
19828;SDS011;10075;50.924;4.396;2023-03-12T04:32:59;15.03;;;4.20;;
19828;SDS011;10075;50.924;4.396;2023-03-12T04:35:26;10.23;;;4.90;;
19828;SDS011;10075;50.924;4.396;2023-03-12T04:37:53;9.73;;;4.20;;
19828;SDS011;10075;50.924;4.396;2023-03-12T04:40:20;8.43;;;4.33;;
19828;SDS011;10075;50.924;4.396;2023-03-12T04:42:47;8.00;;;4.57;;
19828;SDS011;10075;50.924;4.396;2023-03-12T04:45:15;11.50;;;4.50;;
19828;SDS011;10075;50.924;4.396;2023-03-12T04:47:42;9.87;;;4.87;;
19828;SDS011;10075;50.924;4.396;2023-03-12T04:50:10;10.77;;;4.97;;
19828;SDS011;10075;50.924;4.396;2023-03-12T04:52:38;10.33;;;4.57;;
19828;SDS011;10075;50.924;4.396;2023-03-12T04:55:05;9.13;;;4.97;;
19828;SDS011;10075;50.924;4.396;2023-03-12T04:57:33;7.13;;;4.83;;
19828;SDS011;10075;50.924;4.396;2023-03-12T05:00:00;12.37;;;5.00;;
19828;SDS011;10075;50.924;4.396;2023-03-12T05:02:36;10.67;;;5.57;;
19828;SDS011;10075;50.924;4.396;2023-03-12T05:05:03;12.40;;;5.03;;
19828;SDS011;10075;50.924;4.396;2023-03-12T05:07:31;8.57;;;5.40;;
19828;SDS011;10075;50.924;4.396;2023-03-12T05:09:58;7.53;;;4.77;;
19828;SDS011;10075;50.924;4.396;2023-03-12T05:12:25;9.23;;;5.63;;
19828;SDS011;10075;50.924;4.396;2023-03-12T05:14:52;11.20;;;5.37;;
19828;SDS011;10075;50.924;4.396;2023-03-12T05:17:19;10.33;;;5.27;;
19828;SDS011;10075;50.924;4.396;2023-03-12T05:19:47;10.13;;;5.50;;
19828;SDS011;10075;50.924;4.396;2023-03-12T05:22:14;10.87;;;6.83;;
19828;SDS011;10075;50.924;4.396;2023-03-12T05:24:41;12.53;;;6.97;;
19828;SDS011;10075;50.924;4.396;2023-03-12T05:27:08;20.50;;;6.73;;
19828;SDS011;10075;50.924;4.396;2023-03-12T05:29:35;10.77;;;6.30;;
19828;SDS011;10075;50.924;4.396;2023-03-12T05:32:02;12.60;;;7.70;;
19828;SDS011;10075;50.924;4.396;2023-03-12T05:34:31;11.17;;;6.80;;
19828;SDS011;10075;50.924;4.396;2023-03-12T05:37:00;13.13;;;7.17;;
19828;SDS011;10075;50.924;4.396;2023-03-12T05:39:27;13.63;;;8.00;;
19828;SDS011;10075;50.924;4.396;2023-03-12T05:41:54;11.93;;;7.43;;
19828;SDS011;10075;50.924;4.396;2023-03-12T05:44:21;16.93;;;7.93;;
19828;SDS011;10075;50.924;4.396;2023-03-12T05:46:49;15.10;;;8.60;;
19828;SDS011;10075;50.924;4.396;2023-03-12T05:49:16;16.23;;;7.70;;
19828;SDS011;10075;50.924;4.396;2023-03-12T05:51:43;13.43;;;8.87;;
19828;SDS011;10075;50.924;4.396;2023-03-12T05:54:13;17.10;;;9.33;;
19828;SDS011;10075;50.924;4.396;2023-03-12T05:56:40;14.43;;;9.60;;
19828;SDS011;10075;50.924;4.396;2023-03-12T05:59:08;19.80;;;10.50;;
19828;SDS011;10075;50.924;4.396;2023-03-12T06:01:35;14.70;;;10.40;;
19828;SDS011;10075;50.924;4.396;2023-03-12T06:04:03;17.90;;;10.70;;
19828;SDS011;10075;50.924;4.396;2023-03-12T06:06:30;19.53;;;11.70;;
19828;SDS011;10075;50.924;4.396;2023-03-12T06:08:58;20.47;;;11.43;;
19828;SDS011;10075;50.924;4.396;2023-03-12T06:11:26;17.63;;;10.93;;
19828;SDS011;10075;50.924;4.396;2023-03-12T06:13:54;19.87;;;11.70;;
19828;SDS011;10075;50.924;4.396;2023-03-12T06:16:22;21.33;;;11.90;;
19828;SDS011;10075;50.924;4.396;2023-03-12T06:18:51;23.27;;;13.53;;
19828;SDS011;10075;50.924;4.396;2023-03-12T06:21:20;20.77;;;12.20;;
19828;SDS011;10075;50.924;4.396;2023-03-12T06:23:49;24.57;;;12.23;;
19828;SDS011;10075;50.924;4.396;2023-03-12T06:26:16;20.47;;;13.27;;
19828;SDS011;10075;50.924;4.396;2023-03-12T06:28:46;24.30;;;13.63;;
19828;SDS011;10075;50.924;4.396;2023-03-12T06:31:17;23.03;;;13.63;;
19828;SDS011;10075;50.924;4.396;2023-03-12T06:33:45;26.40;;;14.00;;
19828;SDS011;10075;50.924;4.396;2023-03-12T06:36:12;24.43;;;13.37;;
19828;SDS011;10075;50.924;4.396;2023-03-12T06:38:39;24.90;;;13.10;;
19828;SDS011;10075;50.924;4.396;2023-03-12T06:41:07;22.87;;;13.93;;
19828;SDS011;10075;50.924;4.396;2023-03-12T06:43:36;22.70;;;14.27;;
19828;SDS011;10075;50.924;4.396;2023-03-12T06:46:05;19.50;;;12.20;;
19828;SDS011;10075;50.924;4.396;2023-03-12T06:48:34;24.60;;;13.70;;
19828;SDS011;10075;50.924;4.396;2023-03-12T06:51:05;19.77;;;13.03;;
19828;SDS011;10075;50.924;4.396;2023-03-12T06:53:33;23.17;;;13.87;;
19828;SDS011;10075;50.924;4.396;2023-03-12T06:56:00;22.03;;;12.43;;
19828;SDS011;10075;50.924;4.396;2023-03-12T06:58:28;27.60;;;14.53;;
19828;SDS011;10075;50.924;4.396;2023-03-12T07:00:55;25.00;;;14.17;;
19828;SDS011;10075;50.924;4.396;2023-03-12T07:03:24;26.83;;;13.83;;
19828;SDS011;10075;50.924;4.396;2023-03-12T07:05:51;26.97;;;13.87;;
19828;SDS011;10075;50.924;4.396;2023-03-12T07:08:20;23.33;;;13.97;;
19828;SDS011;10075;50.924;4.396;2023-03-12T07:10:48;27.77;;;14.77;;
19828;SDS011;10075;50.924;4.396;2023-03-12T07:13:15;29.07;;;14.07;;
19828;SDS011;10075;50.924;4.396;2023-03-12T07:15:42;23.13;;;13.23;;
19828;SDS011;10075;50.924;4.396;2023-03-12T07:18:10;25.87;;;14.50;;
19828;SDS011;10075;50.924;4.396;2023-03-12T07:20:39;24.63;;;13.23;;
19828;SDS011;10075;50.924;4.396;2023-03-12T07:23:08;20.50;;;13.77;;
19828;SDS011;10075;50.924;4.396;2023-03-12T07:25:36;28.33;;;15.00;;
19828;SDS011;10075;50.924;4.396;2023-03-12T07:28:04;28.13;;;14.17;;
19828;SDS011;10075;50.924;4.396;2023-03-12T07:30:32;28.80;;;13.40;;
19828;SDS011;10075;50.924;4.396;2023-03-12T07:32:59;29.63;;;14.53;;
19828;SDS011;10075;50.924;4.396;2023-03-12T07:35:26;29.70;;;14.80;;
19828;SDS011;10075;50.924;4.396;2023-03-12T07:37:55;25.57;;;14.23;;
19828;SDS011;10075;50.924;4.396;2023-03-12T07:40:23;28.97;;;14.73;;
19828;SDS011;10075;50.924;4.396;2023-03-12T07:42:50;27.90;;;14.37;;
19828;SDS011;10075;50.924;4.396;2023-03-12T07:45:17;24.63;;;11.60;;
19828;SDS011;10075;50.924;4.396;2023-03-12T07:47:45;30.50;;;14.13;;
19828;SDS011;10075;50.924;4.396;2023-03-12T07:50:12;35.10;;;14.60;;
19828;SDS011;10075;50.924;4.396;2023-03-12T07:52:40;31.10;;;13.00;;
19828;SDS011;10075;50.924;4.396;2023-03-12T07:55:09;32.77;;;14.67;;
19828;SDS011;10075;50.924;4.396;2023-03-12T07:57:36;35.20;;;14.97;;
19828;SDS011;10075;50.924;4.396;2023-03-12T08:00:04;35.37;;;12.73;;
19828;SDS011;10075;50.924;4.396;2023-03-12T08:02:34;36.30;;;15.10;;
19828;SDS011;10075;50.924;4.396;2023-03-12T08:05:01;43.13;;;14.77;;
19828;SDS011;10075;50.924;4.396;2023-03-12T08:07:29;47.43;;;15.53;;
19828;SDS011;10075;50.924;4.396;2023-03-12T08:09:56;51.40;;;13.67;;
19828;SDS011;10075;50.924;4.396;2023-03-12T08:12:24;58.17;;;16.77;;
19828;SDS011;10075;50.924;4.396;2023-03-12T08:14:52;55.20;;;16.43;;
19828;SDS011;10075;50.924;4.396;2023-03-12T08:17:19;53.67;;;17.03;;
19828;SDS011;10075;50.924;4.396;2023-03-12T08:19:47;58.40;;;16.17;;
19828;SDS011;10075;50.924;4.396;2023-03-12T08:22:14;66.47;;;15.40;;
19828;SDS011;10075;50.924;4.396;2023-03-12T08:24:41;56.57;;;16.33;;
19828;SDS011;10075;50.924;4.396;2023-03-12T08:27:08;50.27;;;16.87;;
19828;SDS011;10075;50.924;4.396;2023-03-12T08:29:37;59.50;;;16.20;;
19828;SDS011;10075;50.924;4.396;2023-03-12T08:32:05;54.67;;;14.73;;
19828;SDS011;10075;50.924;4.396;2023-03-12T08:34:34;43.83;;;12.27;;
19828;SDS011;10075;50.924;4.396;2023-03-12T08:37:01;52.10;;;13.10;;
19828;SDS011;10075;50.924;4.396;2023-03-12T08:39:29;50.43;;;14.07;;
19828;SDS011;10075;50.924;4.396;2023-03-12T08:41:55;43.43;;;12.70;;
19828;SDS011;10075;50.924;4.396;2023-03-12T08:44:23;50.77;;;13.77;;
19828;SDS011;10075;50.924;4.396;2023-03-12T08:46:51;64.37;;;14.53;;
19828;SDS011;10075;50.924;4.396;2023-03-12T08:49:19;54.63;;;11.47;;
19828;SDS011;10075;50.924;4.396;2023-03-12T08:51:49;47.77;;;10.60;;
19828;SDS011;10075;50.924;4.396;2023-03-12T08:54:16;47.23;;;11.60;;
19828;SDS011;10075;50.924;4.396;2023-03-12T08:56:44;53.70;;;10.33;;
19828;SDS011;10075;50.924;4.396;2023-03-12T08:59:16;42.90;;;8.93;;
19828;SDS011;10075;50.924;4.396;2023-03-12T09:01:44;38.67;;;9.70;;
19828;SDS011;10075;50.924;4.396;2023-03-12T09:04:13;37.83;;;9.30;;
19828;SDS011;10075;50.924;4.396;2023-03-12T09:06:40;47.70;;;9.83;;
19828;SDS011;10075;50.924;4.396;2023-03-12T09:09:07;38.00;;;9.57;;
19828;SDS011;10075;50.924;4.396;2023-03-12T09:11:35;41.37;;;9.17;;
19828;SDS011;10075;50.924;4.396;2023-03-12T09:14:05;43.73;;;8.83;;
19828;SDS011;10075;50.924;4.396;2023-03-12T09:16:32;37.23;;;8.10;;
19828;SDS011;10075;50.924;4.396;2023-03-12T09:19:00;34.87;;;7.27;;
19828;SDS011;10075;50.924;4.396;2023-03-12T09:21:28;43.43;;;8.17;;
19828;SDS011;10075;50.924;4.396;2023-03-12T09:23:55;28.90;;;7.03;;
19828;SDS011;10075;50.924;4.396;2023-03-12T09:26:22;42.13;;;8.03;;
19828;SDS011;10075;50.924;4.396;2023-03-12T09:28:49;36.30;;;7.50;;
19828;SDS011;10075;50.924;4.396;2023-03-12T09:31:16;38.20;;;7.70;;
19828;SDS011;10075;50.924;4.396;2023-03-12T09:33:43;42.53;;;8.07;;
19828;SDS011;10075;50.924;4.396;2023-03-12T09:36:10;43.17;;;8.48;;
19828;SDS011;10075;50.924;4.396;2023-03-12T09:38:39;39.77;;;7.53;;
19828;SDS011;10075;50.924;4.396;2023-03-12T09:41:11;34.53;;;6.70;;
19828;SDS011;10075;50.924;4.396;2023-03-12T09:43:44;39.88;;;7.63;;
19828;SDS011;10075;50.924;4.396;2023-03-12T09:46:18;39.47;;;7.33;;
19828;SDS011;10075;50.924;4.396;2023-03-12T09:48:49;40.90;;;7.68;;
19828;SDS011;10075;50.924;4.396;2023-03-12T09:51:19;32.83;;;6.38;;
19828;SDS011;10075;50.924;4.396;2023-03-12T09:53:52;31.60;;;6.17;;
19828;SDS011;10075;50.924;4.396;2023-03-12T09:56:21;37.57;;;7.40;;
19828;SDS011;10075;50.924;4.396;2023-03-12T09:58:49;48.83;;;8.70;;
19828;SDS011;10075;50.924;4.396;2023-03-12T10:01:24;41.78;;;7.85;;
19828;SDS011;10075;50.924;4.396;2023-03-12T10:06:51;33.70;;;6.67;;
19828;SDS011;10075;50.924;4.396;2023-03-12T10:09:31;34.73;;;6.83;;
19828;SDS011;10075;50.924;4.396;2023-03-12T10:12:13;36.40;;;7.23;;
19828;SDS011;10075;50.924;4.396;2023-03-12T10:14:51;34.83;;;6.90;;
19828;SDS011;10075;50.924;4.396;2023-03-12T10:17:30;32.60;;;6.67;;
19828;SDS011;10075;50.924;4.396;2023-03-12T10:23:04;36.97;;;6.68;;
19828;SDS011;10075;50.924;4.396;2023-03-12T10:25:38;38.45;;;7.38;;
19828;SDS011;10075;50.924;4.396;2023-03-12T10:28:12;32.78;;;7.25;;
19828;SDS011;10075;50.924;4.396;2023-03-12T10:30:45;34.93;;;7.07;;
19828;SDS011;10075;50.924;4.396;2023-03-12T10:33:16;45.20;;;7.63;;
19828;SDS011;10075;50.924;4.396;2023-03-12T10:35:44;40.60;;;7.97;;
19828;SDS011;10075;50.924;4.396;2023-03-12T10:38:12;35.90;;;7.50;;
19828;SDS011;10075;50.924;4.396;2023-03-12T10:40:44;30.73;;;6.80;;
19828;SDS011;10075;50.924;4.396;2023-03-12T10:43:12;39.53;;;8.00;;
19828;SDS011;10075;50.924;4.396;2023-03-12T10:45:41;38.10;;;7.15;;
19828;SDS011;10075;50.924;4.396;2023-03-12T10:48:17;39.35;;;8.43;;
19828;SDS011;10075;50.924;4.396;2023-03-12T10:50:45;23.80;;;5.28;;
19828;SDS011;10075;50.924;4.396;2023-03-12T10:53:27;33.07;;;7.10;;
19828;SDS011;10075;50.924;4.396;2023-03-12T10:55:58;35.93;;;6.93;;
19828;SDS011;10075;50.924;4.396;2023-03-12T10:58:30;28.97;;;5.37;;
19828;SDS011;10075;50.924;4.396;2023-03-12T11:00:59;31.63;;;6.60;;
19828;SDS011;10075;50.924;4.396;2023-03-12T11:03:28;41.30;;;7.77;;
19828;SDS011;10075;50.924;4.396;2023-03-12T11:05:57;49.80;;;8.60;;
19828;SDS011;10075;50.924;4.396;2023-03-12T11:08:26;36.80;;;8.13;;
19828;SDS011;10075;50.924;4.396;2023-03-12T11:10:55;40.03;;;7.87;;
19828;SDS011;10075;50.924;4.396;2023-03-12T11:13:27;33.80;;;6.13;;
19828;SDS011;10075;50.924;4.396;2023-03-12T11:15:56;38.73;;;7.33;;
19828;SDS011;10075;50.924;4.396;2023-03-12T11:18:31;37.13;;;7.63;;
19828;SDS011;10075;50.924;4.396;2023-03-12T11:21:14;40.58;;;7.13;;
19828;SDS011;10075;50.924;4.396;2023-03-12T11:23:44;39.78;;;7.50;;
19828;SDS011;10075;50.924;4.396;2023-03-12T11:26:33;41.13;;;7.05;;
19828;SDS011;10075;50.924;4.396;2023-03-12T11:29:04;36.03;;;6.88;;
19828;SDS011;10075;50.924;4.396;2023-03-12T11:31:44;39.53;;;7.90;;
19828;SDS011;10075;50.924;4.396;2023-03-12T11:34:21;34.17;;;6.97;;
19828;SDS011;10075;50.924;4.396;2023-03-12T11:36:54;31.83;;;6.90;;
19828;SDS011;10075;50.924;4.396;2023-03-12T11:39:30;32.27;;;6.27;;
19828;SDS011;10075;50.924;4.396;2023-03-12T11:42:09;39.63;;;6.88;;
19828;SDS011;10075;50.924;4.396;2023-03-12T11:44:49;35.47;;;7.93;;
19828;SDS011;10075;50.924;4.396;2023-03-12T11:47:31;41.42;;;8.57;;
19828;SDS011;10075;50.924;4.396;2023-03-12T11:50:14;44.55;;;8.27;;
19828;SDS011;10075;50.924;4.396;2023-03-12T11:52:56;34.38;;;8.23;;
19828;SDS011;10075;50.924;4.396;2023-03-12T11:55:45;32.60;;;6.20;;
19828;SDS011;10075;50.924;4.396;2023-03-12T11:58:27;36.93;;;8.30;;
19828;SDS011;10075;50.924;4.396;2023-03-12T12:01:03;33.58;;;7.10;;
19828;SDS011;10075;50.924;4.396;2023-03-12T12:03:56;29.58;;;6.45;;
19828;SDS011;10075;50.924;4.396;2023-03-12T12:06:42;21.90;;;5.25;;
19828;SDS011;10075;50.924;4.396;2023-03-12T12:09:18;37.63;;;6.90;;
19828;SDS011;10075;50.924;4.396;2023-03-12T12:11:56;46.03;;;6.73;;
19828;SDS011;10075;50.924;4.396;2023-03-12T12:14:36;29.08;;;7.55;;
19828;SDS011;10075;50.924;4.396;2023-03-12T12:17:22;32.08;;;7.40;;
19828;SDS011;10075;50.924;4.396;2023-03-12T12:19:59;40.05;;;8.38;;
19828;SDS011;10075;50.924;4.396;2023-03-12T12:22:40;35.45;;;7.30;;
19828;SDS011;10075;50.924;4.396;2023-03-12T12:28:17;34.53;;;7.17;;
19828;SDS011;10075;50.924;4.396;2023-03-12T12:31:17;18.45;;;4.38;;
19828;SDS011;10075;50.924;4.396;2023-03-12T12:33:54;28.67;;;5.35;;
19828;SDS011;10075;50.924;4.396;2023-03-12T12:36:40;31.75;;;6.22;;
19828;SDS011;10075;50.924;4.396;2023-03-12T12:39:16;32.93;;;5.67;;
19828;SDS011;10075;50.924;4.396;2023-03-12T12:41:53;27.10;;;5.57;;
19828;SDS011;10075;50.924;4.396;2023-03-12T12:44:22;30.98;;;6.70;;
19828;SDS011;10075;50.924;4.396;2023-03-12T12:46:54;33.95;;;6.07;;
19828;SDS011;10075;50.924;4.396;2023-03-12T12:49:27;31.75;;;6.57;;
19828;SDS011;10075;50.924;4.396;2023-03-12T12:52:00;29.17;;;6.88;;
19828;SDS011;10075;50.924;4.396;2023-03-12T12:54:30;31.58;;;6.63;;
19828;SDS011;10075;50.924;4.396;2023-03-12T12:57:03;26.40;;;6.57;;
19828;SDS011;10075;50.924;4.396;2023-03-12T12:59:37;27.27;;;6.13;;
19828;SDS011;10075;50.924;4.396;2023-03-12T13:02:14;30.30;;;5.57;;
19828;SDS011;10075;50.924;4.396;2023-03-12T13:04:44;24.63;;;4.28;;
19828;SDS011;10075;50.924;4.396;2023-03-12T13:07:29;29.83;;;5.67;;
19828;SDS011;10075;50.924;4.396;2023-03-12T13:09:59;37.42;;;7.32;;
19828;SDS011;10075;50.924;4.396;2023-03-12T13:12:32;31.58;;;6.35;;
19828;SDS011;10075;50.924;4.396;2023-03-12T13:15:32;29.02;;;5.68;;
19828;SDS011;10075;50.924;4.396;2023-03-12T13:18:06;34.15;;;6.18;;
19828;SDS011;10075;50.924;4.396;2023-03-12T13:20:37;26.70;;;6.07;;
19828;SDS011;10075;50.924;4.396;2023-03-12T13:23:18;29.02;;;6.47;;
19828;SDS011;10075;50.924;4.396;2023-03-12T13:25:57;28.73;;;6.95;;
19828;SDS011;10075;50.924;4.396;2023-03-12T13:28:33;27.15;;;5.65;;
19828;SDS011;10075;50.924;4.396;2023-03-12T13:31:02;29.25;;;5.25;;
19828;SDS011;10075;50.924;4.396;2023-03-12T13:33:51;24.67;;;6.03;;
19828;SDS011;10075;50.924;4.396;2023-03-12T13:36:20;30.88;;;6.28;;
19828;SDS011;10075;50.924;4.396;2023-03-12T13:38:54;32.43;;;6.27;;
19828;SDS011;10075;50.924;4.396;2023-03-12T13:41:30;28.20;;;5.97;;
19828;SDS011;10075;50.924;4.396;2023-03-12T13:43:59;27.23;;;5.67;;
19828;SDS011;10075;50.924;4.396;2023-03-12T13:46:46;32.73;;;6.40;;
19828;SDS011;10075;50.924;4.396;2023-03-12T13:49:18;28.73;;;6.30;;
19828;SDS011;10075;50.924;4.396;2023-03-12T13:51:52;34.50;;;7.47;;
19828;SDS011;10075;50.924;4.396;2023-03-12T13:54:31;32.08;;;7.55;;
19828;SDS011;10075;50.924;4.396;2023-03-12T13:57:01;36.20;;;6.77;;
19828;SDS011;10075;50.924;4.396;2023-03-12T13:59:30;32.50;;;7.25;;
19828;SDS011;10075;50.924;4.396;2023-03-12T14:02:02;28.73;;;7.20;;
19828;SDS011;10075;50.924;4.396;2023-03-12T14:04:39;24.73;;;6.53;;
19828;SDS011;10075;50.924;4.396;2023-03-12T14:07:12;30.80;;;6.93;;
19828;SDS011;10075;50.924;4.396;2023-03-12T14:09:57;31.10;;;6.37;;
19828;SDS011;10075;50.924;4.396;2023-03-12T14:12:37;32.72;;;7.65;;
19828;SDS011;10075;50.924;4.396;2023-03-12T14:17:56;22.90;;;5.03;;
19828;SDS011;10075;50.924;4.396;2023-03-12T14:20:27;28.90;;;5.40;;
19828;SDS011;10075;50.924;4.396;2023-03-12T14:22:56;25.37;;;5.27;;
19828;SDS011;10075;50.924;4.396;2023-03-12T14:25:30;35.37;;;5.87;;
19828;SDS011;10075;50.924;4.396;2023-03-12T14:27:59;24.53;;;6.33;;
19828;SDS011;10075;50.924;4.396;2023-03-12T14:30:35;34.87;;;6.97;;
19828;SDS011;10075;50.924;4.396;2023-03-12T14:33:08;24.70;;;5.27;;
19828;SDS011;10075;50.924;4.396;2023-03-12T14:35:41;29.43;;;5.50;;
19828;SDS011;10075;50.924;4.396;2023-03-12T14:38:12;29.33;;;5.93;;
19828;SDS011;10075;50.924;4.396;2023-03-12T14:40:44;27.93;;;4.67;;
19828;SDS011;10075;50.924;4.396;2023-03-12T14:43:19;28.17;;;5.80;;
19828;SDS011;10075;50.924;4.396;2023-03-12T14:45:49;28.30;;;5.37;;
19828;SDS011;10075;50.924;4.396;2023-03-12T14:48:20;25.17;;;4.70;;
19828;SDS011;10075;50.924;4.396;2023-03-12T14:50:50;25.92;;;4.63;;
19828;SDS011;10075;50.924;4.396;2023-03-12T14:53:25;23.30;;;4.93;;
19828;SDS011;10075;50.924;4.396;2023-03-12T14:55:57;23.30;;;4.53;;
19828;SDS011;10075;50.924;4.396;2023-03-12T14:58:25;20.13;;;4.25;;
19828;SDS011;10075;50.924;4.396;2023-03-12T15:00:53;19.50;;;4.13;;
19828;SDS011;10075;50.924;4.396;2023-03-12T15:03:22;23.55;;;4.68;;
19828;SDS011;10075;50.924;4.396;2023-03-12T15:05:52;20.37;;;4.83;;